Umar1 — 9HA2498 — position and weather

sailwx.info

Track history (hours):
 
Tides and Currents Weather Stations Pressure Air Temp Water Temp Dewpoint Dewpoint Depression Visibility Wind Speed Wind Dir Waves Ship Positions

Umar1

Last reported at 2014-Nov-22 04:24 UTC. Time now 2014-Nov-22 21:28 UTC.
Position N 43°27' E 005°09'.

Length 100 m; draft 4.9 m.

Type: Tanker. MMSI: 248751000.

Date/timePositionNaut miles runAvg speedWind from/ knotsBaromVisibWave heightAir tempDewpointWater temp
2014-Nov-22 04:24N 43°27' E 005°09'4 4.9
2014-Nov-22 03:34N 43°24' E 005°05'5 5.0
2014-Nov-22 02:33N 43°24' E 004°58'0 0.0
2014-Nov-22 01:31N 43°24' E 004°58'0 0.0
2014-Nov-22 00:31N 43°24' E 004°58'0 0.0
2014-Nov-21 23:31N 43°24' E 004°58'0 0.0
2014-Nov-21 22:31N 43°24' E 004°58'0 0.0
2014-Nov-21 21:31N 43°24' E 004°58'0 0.0
2014-Nov-21 20:31N 43°24' E 004°58'0 0.0
2014-Nov-21 19:28N 43°24' E 004°58'0 0.0
2014-Nov-21 18:31N 43°24' E 004°58'0 0.0
2014-Nov-21 17:31N 43°24' E 004°58'0 0.0
2014-Nov-21 16:31N 43°24' E 004°58'0 0.0
2014-Nov-21 15:31N 43°24' E 004°58'0 0.5
2014-Nov-21 14:33N 43°23' E 004°58'9 9.0
2014-Nov-21 13:33N 43°15' E 005°01'20 9.9
2014-Nov-21 11:31N 42°56' E 005°14'1210.7
2014-Nov-21 10:21N 42°46' E 005°22'1010.6
2014-Nov-21 09:23N 42°37' E 005°28'21310.1
2014-Nov-20 12:11N 39°28' E 007°41'36 9.8
2014-Nov-20 08:30N 38°57' E 008°05'2010.0
2014-Nov-20 06:33N 38°47' E 008°26'11 9.8
2014-Nov-20 05:27N 38°41' E 008°38'10 9.9
2014-Nov-20 04:26N 38°36' E 008°49'198 9.5
2014-Nov-19 07:29N 36°56' E 012°26'129 9.7
2014-Nov-18 18:15N 35°57' E 014°48'1 1.5
2014-Nov-18 17:22N 35°57' E 014°50'0 0.0
2014-Nov-18 16:31N 35°57' E 014°50'0 0.0
2014-Nov-18 15:31N 35°57' E 014°50'0 0.0
2014-Nov-18 14:31N 35°57' E 014°50'0 0.0
2014-Nov-18 13:28N 35°57' E 014°50'0 0.0
2014-Nov-18 12:25N 35°57' E 014°50'0 0.0
2014-Nov-18 10:07N 35°57' E 014°50'0 0.0
2014-Nov-18 01:28N 35°57' E 014°50'0 0.0
2014-Nov-16 15:28N 35°56' E 014°50'0 0.0
2014-Nov-16 14:22N 35°56' E 014°50'0 0.0
2014-Nov-16 12:28N 35°56' E 014°50'0 0.0
2014-Nov-16 11:28N 35°56' E 014°50'0 0.0
2014-Nov-16 10:16N 35°56' E 014°50'0 0.0
2014-Nov-16 05:28N 35°57' E 014°50'0 0.0
2014-Nov-16 04:31N 35°57' E 014°50'0 0.0
2014-Nov-16 03:31N 35°57' E 014°50'0 0.0
2014-Nov-16 02:28N 35°57' E 014°50'0 0.0
2014-Nov-16 01:26N 35°57' E 014°50'0 0.0
2014-Nov-15 23:11N 35°57' E 014°50'0 0.0
2014-Nov-15 19:23N 35°57' E 014°50'0 0.0
2014-Nov-15 18:20N 35°57' E 014°50'0 0.0
2014-Nov-15 17:11N 35°57' E 014°50'0 0.0
2014-Nov-15 03:29N 35°56' E 014°50'  
Track history (hours):
 
Tides and Currents Weather Stations Pressure Air Temp Water Temp Dewpoint Dewpoint Depression Visibility Wind Speed Wind Dir Waves Ship Positions

Umar1

Last reported at 2014-Nov-22 04:24 UTC. Time now 2014-Nov-22 21:28 UTC.
Position N 43°27' E 005°09'.

Length 100 m; draft 4.9 m.

Type: Tanker. MMSI: 248751000.

Date/timePositionNaut miles runAvg speedWind from/ knotsBaromVisibWave heightAir tempDewpointWater temp
2014-Nov-22 04:24N 43°27' E 005°09'4 4.9
2014-Nov-22 03:34N 43°24' E 005°05'5 5.0
2014-Nov-22 02:33N 43°24' E 004°58'0 0.0
2014-Nov-22 01:31N 43°24' E 004°58'0 0.0
2014-Nov-22 00:31N 43°24' E 004°58'0 0.0
2014-Nov-21 23:31N 43°24' E 004°58'0 0.0
2014-Nov-21 22:31N 43°24' E 004°58'0 0.0
2014-Nov-21 21:31N 43°24' E 004°58'0 0.0
2014-Nov-21 20:31N 43°24' E 004°58'0 0.0
2014-Nov-21 19:28N 43°24' E 004°58'0 0.0
2014-Nov-21 18:31N 43°24' E 004°58'0 0.0
2014-Nov-21 17:31N 43°24' E 004°58'0 0.0
2014-Nov-21 16:31N 43°24' E 004°58'0 0.0
2014-Nov-21 15:31N 43°24' E 004°58'0 0.5
2014-Nov-21 14:33N 43°23' E 004°58'9 9.0
2014-Nov-21 13:33N 43°15' E 005°01'20 9.9
2014-Nov-21 11:31N 42°56' E 005°14'1210.7
2014-Nov-21 10:21N 42°46' E 005°22'1010.6
2014-Nov-21 09:23N 42°37' E 005°28'21310.1
2014-Nov-20 12:11N 39°28' E 007°41'36 9.8
2014-Nov-20 08:30N 38°57' E 008°05'2010.0
2014-Nov-20 06:33N 38°47' E 008°26'11 9.8
2014-Nov-20 05:27N 38°41' E 008°38'10 9.9
2014-Nov-20 04:26N 38°36' E 008°49'198 9.5
2014-Nov-19 07:29N 36°56' E 012°26'129 9.7
2014-Nov-18 18:15N 35°57' E 014°48'1 1.5
2014-Nov-18 17:22N 35°57' E 014°50'0 0.0
2014-Nov-18 16:31N 35°57' E 014°50'0 0.0
2014-Nov-18 15:31N 35°57' E 014°50'0 0.0
2014-Nov-18 14:31N 35°57' E 014°50'0 0.0
2014-Nov-18 13:28N 35°57' E 014°50'0 0.0
2014-Nov-18 12:25N 35°57' E 014°50'0 0.0
2014-Nov-18 10:07N 35°57' E 014°50'0 0.0
2014-Nov-18 01:28N 35°57' E 014°50'0 0.0
2014-Nov-16 15:28N 35°56' E 014°50'0 0.0
2014-Nov-16 14:22N 35°56' E 014°50'0 0.0
2014-Nov-16 12:28N 35°56' E 014°50'0 0.0
2014-Nov-16 11:28N 35°56' E 014°50'0 0.0
2014-Nov-16 10:16N 35°56' E 014°50'0 0.0
2014-Nov-16 05:28N 35°57' E 014°50'0 0.0
2014-Nov-16 04:31N 35°57' E 014°50'0 0.0
2014-Nov-16 03:31N 35°57' E 014°50'0 0.0
2014-Nov-16 02:28N 35°57' E 014°50'0 0.0
2014-Nov-16 01:26N 35°57' E 014°50'0 0.0
2014-Nov-15 23:11N 35°57' E 014°50'0 0.0
2014-Nov-15 19:23N 35°57' E 014°50'0 0.0
2014-Nov-15 18:20N 35°57' E 014°50'0 0.0
2014-Nov-15 17:11N 35°57' E 014°50'0 0.0
2014-Nov-15 03:29N 35°56' E 014°50'  

Dump ship's entire track history